sensor_id;sensor_type;location;lat;lon;timestamp;temperature;humidity
37956;DHT22;23776;51.592;7.180;2023-04-29T00:00:04;11.50;90.90
37956;DHT22;23776;51.592;7.180;2023-04-29T00:02:31;11.50;90.90
37956;DHT22;23776;51.592;7.180;2023-04-29T00:04:57;11.50;91.20
37956;DHT22;23776;51.592;7.180;2023-04-29T00:07:23;11.50;90.40
37956;DHT22;23776;51.592;7.180;2023-04-29T00:09:48;11.50;90.50
37956;DHT22;23776;51.592;7.180;2023-04-29T00:12:14;11.50;91.00
37956;DHT22;23776;51.592;7.180;2023-04-29T00:14:40;11.50;91.00
37956;DHT22;23776;51.592;7.180;2023-04-29T00:17:07;11.50;90.40
37956;DHT22;23776;51.592;7.180;2023-04-29T00:19:33;11.50;91.10
37956;DHT22;23776;51.592;7.180;2023-04-29T00:21:59;11.40;91.10
37956;DHT22;23776;51.592;7.180;2023-04-29T00:24:25;11.50;92.50
37956;DHT22;23776;51.592;7.180;2023-04-29T00:26:51;11.60;91.40
37956;DHT22;23776;51.592;7.180;2023-04-29T00:29:17;11.40;91.20
37956;DHT22;23776;51.592;7.180;2023-04-29T00:31:43;11.40;91.80
37956;DHT22;23776;51.592;7.180;2023-04-29T00:34:09;11.40;91.80
37956;DHT22;23776;51.592;7.180;2023-04-29T00:36:35;11.40;91.60
37956;DHT22;23776;51.592;7.180;2023-04-29T00:39:01;11.40;91.30
37956;DHT22;23776;51.592;7.180;2023-04-29T00:41:29;11.40;91.60
37956;DHT22;23776;51.592;7.180;2023-04-29T00:43:55;11.40;91.00
37956;DHT22;23776;51.592;7.180;2023-04-29T00:46:21;11.40;90.00
37956;DHT22;23776;51.592;7.180;2023-04-29T00:48:46;11.30;89.10
37956;DHT22;23776;51.592;7.180;2023-04-29T00:51:12;11.30;90.00
37956;DHT22;23776;51.592;7.180;2023-04-29T00:53:38;11.40;88.70
37956;DHT22;23776;51.592;7.180;2023-04-29T00:56:04;11.20;89.80
37956;DHT22;23776;51.592;7.180;2023-04-29T00:58:32;11.20;89.90
37956;DHT22;23776;51.592;7.180;2023-04-29T01:01:03;11.20;88.70
37956;DHT22;23776;51.592;7.180;2023-04-29T01:03:29;11.20;90.20
37956;DHT22;23776;51.592;7.180;2023-04-29T01:09:17;11.20;91.00
37956;DHT22;23776;51.592;7.180;2023-04-29T01:14:17;11.10;91.50
37956;DHT22;23776;51.592;7.180;2023-04-29T01:16:51;11.10;91.90
37956;DHT22;23776;51.592;7.180;2023-04-29T01:19:43;11.10;91.90
37956;DHT22;23776;51.592;7.180;2023-04-29T01:22:10;11.10;92.30
37956;DHT22;23776;51.592;7.180;2023-04-29T01:24:38;9.60;92.50
37956;DHT22;23776;51.592;7.180;2023-04-29T01:27:45;11.10;92.60
37956;DHT22;23776;51.592;7.180;2023-04-29T01:40:52;10.80;91.80
37956;DHT22;23776;51.592;7.180;2023-04-29T01:43:24;10.90;92.10
37956;DHT22;23776;51.592;7.180;2023-04-29T01:45:55;10.90;91.30
37956;DHT22;23776;51.592;7.180;2023-04-29T01:48:23;10.80;91.60
37956;DHT22;23776;51.592;7.180;2023-04-29T01:50:49;10.70;90.30
37956;DHT22;23776;51.592;7.180;2023-04-29T01:53:15;10.80;90.40
37956;DHT22;23776;51.592;7.180;2023-04-29T01:55:40;10.80;90.90
37956;DHT22;23776;51.592;7.180;2023-04-29T01:58:09;10.80;90.80
37956;DHT22;23776;51.592;7.180;2023-04-29T02:00:35;10.80;90.30
37956;DHT22;23776;51.592;7.180;2023-04-29T02:03:02;10.80;90.50
37956;DHT22;23776;51.592;7.180;2023-04-29T02:05:28;10.70;89.70
37956;DHT22;23776;51.592;7.180;2023-04-29T02:07:56;10.70;90.90
37956;DHT22;23776;51.592;7.180;2023-04-29T02:10:22;10.80;90.90
37956;DHT22;23776;51.592;7.180;2023-04-29T02:12:47;10.70;89.80
37956;DHT22;23776;51.592;7.180;2023-04-29T02:15:13;10.70;89.10
37956;DHT22;23776;51.592;7.180;2023-04-29T02:17:39;10.60;90.20
37956;DHT22;23776;51.592;7.180;2023-04-29T02:20:06;10.70;90.70
37956;DHT22;23776;51.592;7.180;2023-04-29T02:22:31;10.70;90.30
37956;DHT22;23776;51.592;7.180;2023-04-29T02:24:57;10.70;90.10
37956;DHT22;23776;51.592;7.180;2023-04-29T02:27:23;10.70;89.40
37956;DHT22;23776;51.592;7.180;2023-04-29T02:29:48;10.70;89.80
37956;DHT22;23776;51.592;7.180;2023-04-29T02:32:15;10.70;89.00
37956;DHT22;23776;51.592;7.180;2023-04-29T02:34:44;10.70;87.30
37956;DHT22;23776;51.592;7.180;2023-04-29T02:37:10;10.70;84.50
37956;DHT22;23776;51.592;7.180;2023-04-29T02:39:35;10.60;86.00
37956;DHT22;23776;51.592;7.180;2023-04-29T02:42:01;10.60;87.10
37956;DHT22;23776;51.592;7.180;2023-04-29T02:44:27;10.60;87.60
37956;DHT22;23776;51.592;7.180;2023-04-29T02:46:53;10.50;87.50
37956;DHT22;23776;51.592;7.180;2023-04-29T02:49:19;10.50;87.20
37956;DHT22;23776;51.592;7.180;2023-04-29T02:51:44;10.50;90.00
37956;DHT22;23776;51.592;7.180;2023-04-29T02:54:10;10.50;88.70
37956;DHT22;23776;51.592;7.180;2023-04-29T02:56:36;10.50;90.00
37956;DHT22;23776;51.592;7.180;2023-04-29T02:59:02;10.50;90.50
37956;DHT22;23776;51.592;7.180;2023-04-29T03:01:28;10.50;88.30
37956;DHT22;23776;51.592;7.180;2023-04-29T03:03:53;10.50;89.00
37956;DHT22;23776;51.592;7.180;2023-04-29T03:06:20;10.50;90.20
37956;DHT22;23776;51.592;7.180;2023-04-29T03:08:45;10.40;87.30
37956;DHT22;23776;51.592;7.180;2023-04-29T03:11:11;10.40;84.60
37956;DHT22;23776;51.592;7.180;2023-04-29T03:13:36;10.40;85.90
37956;DHT22;23776;51.592;7.180;2023-04-29T03:16:03;10.30;88.50
37956;DHT22;23776;51.592;7.180;2023-04-29T03:18:28;10.30;90.60
37956;DHT22;23776;51.592;7.180;2023-04-29T03:20:54;10.30;90.60
37956;DHT22;23776;51.592;7.180;2023-04-29T03:23:19;10.30;90.60
37956;DHT22;23776;51.592;7.180;2023-04-29T03:25:46;12.50;91.30
37956;DHT22;23776;51.592;7.180;2023-04-29T03:28:12;10.30;91.00
37956;DHT22;23776;51.592;7.180;2023-04-29T03:30:37;10.20;90.90
37956;DHT22;23776;51.592;7.180;2023-04-29T03:33:03;10.30;91.10
37956;DHT22;23776;51.592;7.180;2023-04-29T03:35:28;10.30;91.30
37956;DHT22;23776;51.592;7.180;2023-04-29T03:37:54;10.20;91.60
37956;DHT22;23776;51.592;7.180;2023-04-29T03:40:20;10.30;91.50
37956;DHT22;23776;51.592;7.180;2023-04-29T03:42:46;10.30;91.90
37956;DHT22;23776;51.592;7.180;2023-04-29T03:45:11;10.30;91.70
37956;DHT22;23776;51.592;7.180;2023-04-29T03:47:38;10.30;92.50
37956;DHT22;23776;51.592;7.180;2023-04-29T03:50:05;10.40;91.40
37956;DHT22;23776;51.592;7.180;2023-04-29T03:52:31;10.40;92.10
37956;DHT22;23776;51.592;7.180;2023-04-29T03:54:57;10.50;92.00
37956;DHT22;23776;51.592;7.180;2023-04-29T03:57:22;10.40;91.70
37956;DHT22;23776;51.592;7.180;2023-04-29T03:59:48;10.30;90.90
37956;DHT22;23776;51.592;7.180;2023-04-29T04:02:15;10.30;91.70
37956;DHT22;23776;51.592;7.180;2023-04-29T04:04:41;10.30;92.00
37956;DHT22;23776;51.592;7.180;2023-04-29T04:07:06;10.40;92.40
37956;DHT22;23776;51.592;7.180;2023-04-29T04:09:32;10.30;91.90
37956;DHT22;23776;51.592;7.180;2023-04-29T04:11:58;10.30;91.60
37956;DHT22;23776;51.592;7.180;2023-04-29T04:14:24;10.30;91.30
37956;DHT22;23776;51.592;7.180;2023-04-29T04:16:50;10.30;91.60
37956;DHT22;23776;51.592;7.180;2023-04-29T04:19:16;10.40;91.60
37956;DHT22;23776;51.592;7.180;2023-04-29T04:21:41;10.40;91.50
37956;DHT22;23776;51.592;7.180;2023-04-29T04:24:07;10.40;91.60
37956;DHT22;23776;51.592;7.180;2023-04-29T04:26:33;10.50;92.10
37956;DHT22;23776;51.592;7.180;2023-04-29T04:28:58;10.40;91.30
37956;DHT22;23776;51.592;7.180;2023-04-29T04:31:24;10.50;90.70
37956;DHT22;23776;51.592;7.180;2023-04-29T04:33:49;10.50;90.50
37956;DHT22;23776;51.592;7.180;2023-04-29T04:36:15;10.50;91.30
37956;DHT22;23776;51.592;7.180;2023-04-29T04:38:41;10.50;90.80
37956;DHT22;23776;51.592;7.180;2023-04-29T04:41:06;10.50;90.70
37956;DHT22;23776;51.592;7.180;2023-04-29T04:43:32;10.50;90.20
37956;DHT22;23776;51.592;7.180;2023-04-29T04:45:58;10.50;90.10
37956;DHT22;23776;51.592;7.180;2023-04-29T04:48:23;10.60;88.90
37956;DHT22;23776;51.592;7.180;2023-04-29T04:50:49;10.50;86.60
37956;DHT22;23776;51.592;7.180;2023-04-29T04:53:14;10.50;87.10
37956;DHT22;23776;51.592;7.180;2023-04-29T04:55:40;10.50;86.80
37956;DHT22;23776;51.592;7.180;2023-04-29T04:58:06;10.50;86.10
37956;DHT22;23776;51.592;7.180;2023-04-29T05:00:32;10.40;87.30
37956;DHT22;23776;51.592;7.180;2023-04-29T05:02:57;10.50;87.20
37956;DHT22;23776;51.592;7.180;2023-04-29T05:05:23;10.40;89.10
37956;DHT22;23776;51.592;7.180;2023-04-29T05:07:49;10.40;88.50
37956;DHT22;23776;51.592;7.180;2023-04-29T05:10:14;10.50;90.00
37956;DHT22;23776;51.592;7.180;2023-04-29T05:12:40;10.40;87.10
37956;DHT22;23776;51.592;7.180;2023-04-29T05:15:06;10.40;88.20
37956;DHT22;23776;51.592;7.180;2023-04-29T05:17:32;10.40;85.90
37956;DHT22;23776;51.592;7.180;2023-04-29T05:19:59;10.40;87.20
37956;DHT22;23776;51.592;7.180;2023-04-29T05:22:24;10.40;87.70
37956;DHT22;23776;51.592;7.180;2023-04-29T05:24:50;10.50;86.30
37956;DHT22;23776;51.592;7.180;2023-04-29T05:27:17;12.70;88.30
37956;DHT22;23776;51.592;7.180;2023-04-29T05:29:43;10.40;87.70
37956;DHT22;23776;51.592;7.180;2023-04-29T05:32:08;10.50;86.10
37956;DHT22;23776;51.592;7.180;2023-04-29T05:34:34;10.40;85.60
37956;DHT22;23776;51.592;7.180;2023-04-29T05:37:00;10.50;85.80
37956;DHT22;23776;51.592;7.180;2023-04-29T05:39:25;10.60;86.40
37956;DHT22;23776;51.592;7.180;2023-04-29T05:41:51;10.50;85.70
37956;DHT22;23776;51.592;7.180;2023-04-29T05:44:17;10.50;82.30
37956;DHT22;23776;51.592;7.180;2023-04-29T05:46:42;10.50;83.90
37956;DHT22;23776;51.592;7.180;2023-04-29T05:49:08;10.50;84.00
37956;DHT22;23776;51.592;7.180;2023-04-29T05:51:34;10.50;81.80
37956;DHT22;23776;51.592;7.180;2023-04-29T05:53:59;10.50;81.40
37956;DHT22;23776;51.592;7.180;2023-04-29T05:56:25;10.60;81.70
37956;DHT22;23776;51.592;7.180;2023-04-29T05:58:51;10.60;81.90
37956;DHT22;23776;51.592;7.180;2023-04-29T06:01:16;10.60;80.30
37956;DHT22;23776;51.592;7.180;2023-04-29T06:03:42;10.60;78.70
37956;DHT22;23776;51.592;7.180;2023-04-29T06:06:08;10.50;80.20
37956;DHT22;23776;51.592;7.180;2023-04-29T06:08:34;10.50;76.70
37956;DHT22;23776;51.592;7.180;2023-04-29T06:11:00;10.60;77.40
37956;DHT22;23776;51.592;7.180;2023-04-29T06:13:27;10.60;77.90
37956;DHT22;23776;51.592;7.180;2023-04-29T06:15:54;10.60;76.70
37956;DHT22;23776;51.592;7.180;2023-04-29T06:18:20;10.60;74.30
37956;DHT22;23776;51.592;7.180;2023-04-29T06:20:46;10.60;76.20
37956;DHT22;23776;51.592;7.180;2023-04-29T06:23:11;10.60;77.10
37956;DHT22;23776;51.592;7.180;2023-04-29T06:25:37;10.60;75.30
37956;DHT22;23776;51.592;7.180;2023-04-29T06:28:03;10.60;71.50
37956;DHT22;23776;51.592;7.180;2023-04-29T06:30:28;10.50;70.80
37956;DHT22;23776;51.592;7.180;2023-04-29T06:32:54;10.50;69.20
37956;DHT22;23776;51.592;7.180;2023-04-29T06:35:19;10.50;70.20
37956;DHT22;23776;51.592;7.180;2023-04-29T06:37:45;10.50;72.50
37956;DHT22;23776;51.592;7.180;2023-04-29T06:40:12;10.40;73.60
37956;DHT22;23776;51.592;7.180;2023-04-29T06:42:37;10.50;76.50
37956;DHT22;23776;51.592;7.180;2023-04-29T06:45:03;10.50;78.10
37956;DHT22;23776;51.592;7.180;2023-04-29T06:47:29;10.60;79.70
37956;DHT22;23776;51.592;7.180;2023-04-29T06:49:55;10.60;76.70
37956;DHT22;23776;51.592;7.180;2023-04-29T06:52:20;10.50;74.70
37956;DHT22;23776;51.592;7.180;2023-04-29T06:54:46;10.50;77.80
37956;DHT22;23776;51.592;7.180;2023-04-29T06:57:12;10.40;78.40
37956;DHT22;23776;51.592;7.180;2023-04-29T06:59:37;10.40;79.40
37956;DHT22;23776;51.592;7.180;2023-04-29T07:02:03;10.40;80.60
37956;DHT22;23776;51.592;7.180;2023-04-29T07:04:28;10.40;80.40
37956;DHT22;23776;51.592;7.180;2023-04-29T07:06:55;10.40;79.40
37956;DHT22;23776;51.592;7.180;2023-04-29T07:09:20;10.40;79.50
37956;DHT22;23776;51.592;7.180;2023-04-29T07:11:48;10.40;81.30
37956;DHT22;23776;51.592;7.180;2023-04-29T07:14:13;10.40;81.20
37956;DHT22;23776;51.592;7.180;2023-04-29T07:16:39;10.40;83.20
37956;DHT22;23776;51.592;7.180;2023-04-29T07:19:05;10.40;82.70
37956;DHT22;23776;51.592;7.180;2023-04-29T07:21:30;10.50;82.00
37956;DHT22;23776;51.592;7.180;2023-04-29T07:23:56;10.50;84.50
37956;DHT22;23776;51.592;7.180;2023-04-29T07:26:23;10.50;82.70
37956;DHT22;23776;51.592;7.180;2023-04-29T07:28:49;10.50;83.20
37956;DHT22;23776;51.592;7.180;2023-04-29T07:31:14;10.60;83.70
37956;DHT22;23776;51.592;7.180;2023-04-29T07:33:40;10.60;83.90
37956;DHT22;23776;51.592;7.180;2023-04-29T07:36:06;10.60;84.30
37956;DHT22;23776;51.592;7.180;2023-04-29T07:38:32;10.60;83.80
37956;DHT22;23776;51.592;7.180;2023-04-29T07:40:58;10.70;82.10
37956;DHT22;23776;51.592;7.180;2023-04-29T07:43:24;10.70;81.60
37956;DHT22;23776;51.592;7.180;2023-04-29T07:48:15;10.70;81.60
37956;DHT22;23776;51.592;7.180;2023-04-29T07:50:41;10.70;80.40
37956;DHT22;23776;51.592;7.180;2023-04-29T07:53:07;10.70;80.80
37956;DHT22;23776;51.592;7.180;2023-04-29T07:55:33;10.70;79.10
37956;DHT22;23776;51.592;7.180;2023-04-29T07:57:58;10.60;78.50
37956;DHT22;23776;51.592;7.180;2023-04-29T08:00:24;10.60;77.90
37956;DHT22;23776;51.592;7.180;2023-04-29T08:02:53;10.60;77.80
37956;DHT22;23776;51.592;7.180;2023-04-29T08:05:20;10.60;78.20
37956;DHT22;23776;51.592;7.180;2023-04-29T08:07:49;10.60;77.80
37956;DHT22;23776;51.592;7.180;2023-04-29T08:10:16;10.60;78.80
37956;DHT22;23776;51.592;7.180;2023-04-29T08:12:45;10.60;77.00
37956;DHT22;23776;51.592;7.180;2023-04-29T08:15:11;10.70;74.80
37956;DHT22;23776;51.592;7.180;2023-04-29T08:17:37;10.60;75.50
37956;DHT22;23776;51.592;7.180;2023-04-29T08:20:03;10.60;75.00
37956;DHT22;23776;51.592;7.180;2023-04-29T08:22:28;10.70;75.70
37956;DHT22;23776;51.592;7.180;2023-04-29T08:24:55;10.70;75.00
37956;DHT22;23776;51.592;7.180;2023-04-29T08:27:20;10.80;75.50
37956;DHT22;23776;51.592;7.180;2023-04-29T08:29:46;10.90;77.00
37956;DHT22;23776;51.592;7.180;2023-04-29T08:32:12;10.90;72.50
37956;DHT22;23776;51.592;7.180;2023-04-29T08:34:37;11.00;72.60
37956;DHT22;23776;51.592;7.180;2023-04-29T08:37:03;11.00;73.90
37956;DHT22;23776;51.592;7.180;2023-04-29T08:39:29;11.00;69.50
37956;DHT22;23776;51.592;7.180;2023-04-29T08:41:58;11.00;70.20
37956;DHT22;23776;51.592;7.180;2023-04-29T08:44:27;11.30;70.50
37956;DHT22;23776;51.592;7.180;2023-04-29T08:46:54;11.10;67.90
37956;DHT22;23776;51.592;7.180;2023-04-29T08:49:21;11.20;67.30
37956;DHT22;23776;51.592;7.180;2023-04-29T08:51:48;11.20;62.90
37956;DHT22;23776;51.592;7.180;2023-04-29T08:54:16;11.20;62.80
37956;DHT22;23776;51.592;7.180;2023-04-29T08:56:44;11.30;61.70
37956;DHT22;23776;51.592;7.180;2023-04-29T08:59:11;11.20;62.30
37956;DHT22;23776;51.592;7.180;2023-04-29T09:01:39;11.30;62.70
37956;DHT22;23776;51.592;7.180;2023-04-29T09:06:31;11.10;62.00
37956;DHT22;23776;51.592;7.180;2023-04-29T09:08:58;11.30;62.50
37956;DHT22;23776;51.592;7.180;2023-04-29T09:11:26;11.40;61.80
37956;DHT22;23776;51.592;7.180;2023-04-29T09:14:01;11.60;61.10
37956;DHT22;23776;51.592;7.180;2023-04-29T09:16:27;11.70;58.80
37956;DHT22;23776;51.592;7.180;2023-04-29T09:18:53;11.60;55.10
37956;DHT22;23776;51.592;7.180;2023-04-29T09:21:26;11.70;55.70
37956;DHT22;23776;51.592;7.180;2023-04-29T09:23:55;11.70;49.60
37956;DHT22;23776;51.592;7.180;2023-04-29T09:26:21;11.80;52.40
37956;DHT22;23776;51.592;7.180;2023-04-29T09:28:51;11.90;51.70
37956;DHT22;23776;51.592;7.180;2023-04-29T09:31:29;12.10;47.10
37956;DHT22;23776;51.592;7.180;2023-04-29T09:33:56;12.20;42.80
37956;DHT22;23776;51.592;7.180;2023-04-29T09:36:49;12.20;36.60
37956;DHT22;23776;51.592;7.180;2023-04-29T09:39:22;12.20;19.20
37956;DHT22;23776;51.592;7.180;2023-04-29T09:44:27;12.20;26.00
37956;DHT22;23776;51.592;7.180;2023-04-29T09:47:01;12.20;24.70
37956;DHT22;23776;51.592;7.180;2023-04-29T09:49:32;10.70;25.40
37956;DHT22;23776;51.592;7.180;2023-04-29T09:52:01;12.50;24.10
37956;DHT22;23776;51.592;7.180;2023-04-29T09:54:29;12.60;24.90
37956;DHT22;23776;51.592;7.180;2023-04-29T09:56:57;12.80;23.20
37956;DHT22;23776;51.592;7.180;2023-04-29T09:59:23;12.90;16.80
37956;DHT22;23776;51.592;7.180;2023-04-29T10:01:51;13.10;21.00
37956;DHT22;23776;51.592;7.180;2023-04-29T10:04:19;13.20;7.40
37956;DHT22;23776;51.592;7.180;2023-04-29T10:06:48;13.30;1.00
37956;DHT22;23776;51.592;7.180;2023-04-29T10:09:14;13.30;1.00
37956;DHT22;23776;51.592;7.180;2023-04-29T10:11:41;13.50;1.00
37956;DHT22;23776;51.592;7.180;2023-04-29T10:14:11;13.50;1.00
37956;DHT22;23776;51.592;7.180;2023-04-29T10:16:45;13.60;1.00
37956;DHT22;23776;51.592;7.180;2023-04-29T10:19:11;13.60;1.00
37956;DHT22;23776;51.592;7.180;2023-04-29T10:21:40;13.60;1.00
37956;DHT22;23776;51.592;7.180;2023-04-29T10:24:07;13.60;1.00
37956;DHT22;23776;51.592;7.180;2023-04-29T10:26:37;13.70;1.00
37956;DHT22;23776;51.592;7.180;2023-04-29T10:29:04;13.90;1.00
37956;DHT22;23776;51.592;7.180;2023-04-29T10:31:33;14.00;1.00
37956;DHT22;23776;51.592;7.180;2023-04-29T10:33:59;14.10;1.00
37956;DHT22;23776;51.592;7.180;2023-04-29T10:36:27;14.20;1.00
37956;DHT22;23776;51.592;7.180;2023-04-29T10:38:58;14.30;1.00
37956;DHT22;23776;51.592;7.180;2023-04-29T10:41:32;14.40;1.00
37956;DHT22;23776;51.592;7.180;2023-04-29T10:43:59;14.40;1.00
37956;DHT22;23776;51.592;7.180;2023-04-29T10:46:25;14.60;1.00
37956;DHT22;23776;51.592;7.180;2023-04-29T10:49:02;14.70;1.00
37956;DHT22;23776;51.592;7.180;2023-04-29T10:51:39;14.80;1.00
37956;DHT22;23776;51.592;7.180;2023-04-29T10:56:50;14.90;99.90
37956;DHT22;23776;51.592;7.180;2023-04-29T10:59:20;14.90;99.90
37956;DHT22;23776;51.592;7.180;2023-04-29T11:01:51;15.00;99.90
37956;DHT22;23776;51.592;7.180;2023-04-29T11:04:20;15.10;99.90
37956;DHT22;23776;51.592;7.180;2023-04-29T11:06:56;15.30;99.90
37956;DHT22;23776;51.592;7.180;2023-04-29T11:12:07;15.40;1.00
37956;DHT22;23776;51.592;7.180;2023-04-29T11:14:40;15.40;77.90
37956;DHT22;23776;51.592;7.180;2023-04-29T11:17:11;15.50;99.90
37956;DHT22;23776;51.592;7.180;2023-04-29T11:19:42;15.60;99.90
37956;DHT22;23776;51.592;7.180;2023-04-29T11:22:29;15.80;1.00
37956;DHT22;23776;51.592;7.180;2023-04-29T11:24:57;16.00;98.70
37956;DHT22;23776;51.592;7.180;2023-04-29T11:27:30;16.30;1.00
37956;DHT22;23776;51.592;7.180;2023-04-29T11:29:57;16.30;99.90
37956;DHT22;23776;51.592;7.180;2023-04-29T11:32:27;16.30;99.90
37956;DHT22;23776;51.592;7.180;2023-04-29T11:34:54;16.20;99.90
37956;DHT22;23776;51.592;7.180;2023-04-29T11:37:25;16.50;1.00
37956;DHT22;23776;51.592;7.180;2023-04-29T11:40:00;16.70;1.00
37956;DHT22;23776;51.592;7.180;2023-04-29T11:42:26;16.90;99.90
37956;DHT22;23776;51.592;7.180;2023-04-29T11:44:53;17.10;93.70
37956;DHT22;23776;51.592;7.180;2023-04-29T11:47:25;17.20;86.80
37956;DHT22;23776;51.592;7.180;2023-04-29T11:49:51;17.20;99.90
37956;DHT22;23776;51.592;7.180;2023-04-29T11:52:16;17.00;26.50
37956;DHT22;23776;51.592;7.180;2023-04-29T11:54:42;16.90;23.60
37956;DHT22;23776;51.592;7.180;2023-04-29T11:57:09;16.80;99.90
37956;DHT22;23776;51.592;7.180;2023-04-29T11:59:35;16.80;99.90
37956;DHT22;23776;51.592;7.180;2023-04-29T12:02:00;16.90;99.90
37956;DHT22;23776;51.592;7.180;2023-04-29T12:04:26;16.90;99.90
37956;DHT22;23776;51.592;7.180;2023-04-29T12:06:52;16.90;1.00
37956;DHT22;23776;51.592;7.180;2023-04-29T12:09:18;16.80;99.90
37956;DHT22;23776;51.592;7.180;2023-04-29T12:11:44;16.70;99.90
37956;DHT22;23776;51.592;7.180;2023-04-29T12:14:12;16.50;99.90
37956;DHT22;23776;51.592;7.180;2023-04-29T12:16:38;16.40;99.90
37956;DHT22;23776;51.592;7.180;2023-04-29T12:19:04;16.10;57.90
37956;DHT22;23776;51.592;7.180;2023-04-29T12:21:30;16.00;21.20
37956;DHT22;23776;51.592;7.180;2023-04-29T12:23:58;17.40;99.90
37956;DHT22;23776;51.592;7.180;2023-04-29T12:26:27;16.00;99.90
37956;DHT22;23776;51.592;7.180;2023-04-29T12:28:53;16.00;31.90
37956;DHT22;23776;51.592;7.180;2023-04-29T12:31:21;16.00;99.90
37956;DHT22;23776;51.592;7.180;2023-04-29T12:33:48;15.80;99.90
37956;DHT22;23776;51.592;7.180;2023-04-29T12:36:18;15.80;36.00
37956;DHT22;23776;51.592;7.180;2023-04-29T12:38:44;15.80;99.90
37956;DHT22;23776;51.592;7.180;2023-04-29T12:41:11;15.70;99.90
37956;DHT22;23776;51.592;7.180;2023-04-29T12:43:38;15.70;99.90
37956;DHT22;23776;51.592;7.180;2023-04-29T12:46:05;15.70;79.30
37956;DHT22;23776;51.592;7.180;2023-04-29T12:48:33;15.80;1.00
37956;DHT22;23776;51.592;7.180;2023-04-29T12:51:00;15.80;1.00
37956;DHT22;23776;51.592;7.180;2023-04-29T12:53:28;15.90;1.00
37956;DHT22;23776;51.592;7.180;2023-04-29T12:55:53;15.90;1.00
37956;DHT22;23776;51.592;7.180;2023-04-29T12:58:19;15.90;1.00
37956;DHT22;23776;51.592;7.180;2023-04-29T13:00:45;16.00;1.00
37956;DHT22;23776;51.592;7.180;2023-04-29T13:03:10;16.00;1.00
37956;DHT22;23776;51.592;7.180;2023-04-29T13:05:36;16.00;1.00
37956;DHT22;23776;51.592;7.180;2023-04-29T13:08:02;16.00;1.00
37956;DHT22;23776;51.592;7.180;2023-04-29T13:10:31;15.90;24.60
37956;DHT22;23776;51.592;7.180;2023-04-29T13:12:57;15.80;1.00
37956;DHT22;23776;51.592;7.180;2023-04-29T13:15:23;15.90;1.00
37956;DHT22;23776;51.592;7.180;2023-04-29T13:17:48;16.00;99.90
37956;DHT22;23776;51.592;7.180;2023-04-29T13:20:14;16.10;99.90
37956;DHT22;23776;51.592;7.180;2023-04-29T13:22:40;16.20;99.90
37956;DHT22;23776;51.592;7.180;2023-04-29T13:25:07;16.40;1.00
37956;DHT22;23776;51.592;7.180;2023-04-29T13:27:33;16.50;99.90
37956;DHT22;23776;51.592;7.180;2023-04-29T13:29:59;16.60;1.00
37956;DHT22;23776;51.592;7.180;2023-04-29T13:32:24;16.60;1.00
37956;DHT22;23776;51.592;7.180;2023-04-29T13:34:50;16.60;99.90
37956;DHT22;23776;51.592;7.180;2023-04-29T13:37:15;16.70;99.90
37956;DHT22;23776;51.592;7.180;2023-04-29T13:39:41;16.70;80.30
37956;DHT22;23776;51.592;7.180;2023-04-29T13:42:07;16.70;99.90
37956;DHT22;23776;51.592;7.180;2023-04-29T13:44:34;16.80;99.90
37956;DHT22;23776;51.592;7.180;2023-04-29T13:47:00;16.80;1.00
37956;DHT22;23776;51.592;7.180;2023-04-29T13:49:26;16.80;99.90
37956;DHT22;23776;51.592;7.180;2023-04-29T13:51:52;16.80;99.90
37956;DHT22;23776;51.592;7.180;2023-04-29T13:54:18;16.80;99.90
37956;DHT22;23776;51.592;7.180;2023-04-29T13:56:46;16.60;99.90
37956;DHT22;23776;51.592;7.180;2023-04-29T13:59:11;16.40;1.00
37956;DHT22;23776;51.592;7.180;2023-04-29T14:01:37;16.40;1.00
37956;DHT22;23776;51.592;7.180;2023-04-29T14:04:03;16.40;1.00
37956;DHT22;23776;51.592;7.180;2023-04-29T14:06:28;16.30;99.90
37956;DHT22;23776;51.592;7.180;2023-04-29T14:08:56;16.30;99.90
37956;DHT22;23776;51.592;7.180;2023-04-29T14:11:22;16.40;1.00
37956;DHT22;23776;51.592;7.180;2023-04-29T14:13:48;16.40;99.90
37956;DHT22;23776;51.592;7.180;2023-04-29T14:16:14;16.40;99.90
37956;DHT22;23776;51.592;7.180;2023-04-29T14:18:40;16.50;1.00
37956;DHT22;23776;51.592;7.180;2023-04-29T14:21:05;16.60;99.90
37956;DHT22;23776;51.592;7.180;2023-04-29T14:23:31;16.60;99.90
37956;DHT22;23776;51.592;7.180;2023-04-29T14:25:56;16.60;99.90
37956;DHT22;23776;51.592;7.180;2023-04-29T14:28:22;16.60;99.90
37956;DHT22;23776;51.592;7.180;2023-04-29T14:30:47;16.30;99.90
37956;DHT22;23776;51.592;7.180;2023-04-29T14:33:13;16.30;99.90
37956;DHT22;23776;51.592;7.180;2023-04-29T14:35:39;15.50;99.90
37956;DHT22;23776;51.592;7.180;2023-04-29T14:38:04;16.30;99.90
37956;DHT22;23776;51.592;7.180;2023-04-29T14:40:30;16.30;99.90
37956;DHT22;23776;51.592;7.180;2023-04-29T14:42:55;16.40;99.90
37956;DHT22;23776;51.592;7.180;2023-04-29T14:45:21;16.60;99.90
37956;DHT22;23776;51.592;7.180;2023-04-29T14:47:46;16.80;99.90
37956;DHT22;23776;51.592;7.180;2023-04-29T14:50:12;17.10;99.90
37956;DHT22;23776;51.592;7.180;2023-04-29T14:52:38;17.80;68.50
37956;DHT22;23776;51.592;7.180;2023-04-29T14:55:03;19.30;87.90
37956;DHT22;23776;51.592;7.180;2023-04-29T14:57:29;21.20;99.90
37956;DHT22;23776;51.592;7.180;2023-04-29T14:59:55;22.30;99.90
37956;DHT22;23776;51.592;7.180;2023-04-29T15:02:21;22.40;99.90
37956;DHT22;23776;51.592;7.180;2023-04-29T15:04:46;22.40;99.90
37956;DHT22;23776;51.592;7.180;2023-04-29T15:07:13;24.50;99.90
37956;DHT22;23776;51.592;7.180;2023-04-29T15:09:41;23.90;99.90
37956;DHT22;23776;51.592;7.180;2023-04-29T15:12:07;24.70;99.90
37956;DHT22;23776;51.592;7.180;2023-04-29T15:14:32;25.80;99.90
37956;DHT22;23776;51.592;7.180;2023-04-29T15:16:58;26.30;99.90
37956;DHT22;23776;51.592;7.180;2023-04-29T15:19:24;25.90;99.90
37956;DHT22;23776;51.592;7.180;2023-04-29T15:21:51;24.00;99.90
37956;DHT22;23776;51.592;7.180;2023-04-29T15:24:17;23.50;99.90
37956;DHT22;23776;51.592;7.180;2023-04-29T15:26:42;22.40;99.90
37956;DHT22;23776;51.592;7.180;2023-04-29T15:29:08;21.50;99.90
37956;DHT22;23776;51.592;7.180;2023-04-29T15:31:34;20.70;99.90
37956;DHT22;23776;51.592;7.180;2023-04-29T15:33:59;20.20;99.90
37956;DHT22;23776;51.592;7.180;2023-04-29T15:36:30;19.70;99.90
37956;DHT22;23776;51.592;7.180;2023-04-29T15:38:57;17.50;99.90
37956;DHT22;23776;51.592;7.180;2023-04-29T15:41:22;18.80;1.00
37956;DHT22;23776;51.592;7.180;2023-04-29T15:43:50;18.50;1.00
37956;DHT22;23776;51.592;7.180;2023-04-29T15:46:16;18.20;1.00
37956;DHT22;23776;51.592;7.180;2023-04-29T15:48:42;17.80;1.00
37956;DHT22;23776;51.592;7.180;2023-04-29T15:51:07;17.70;1.00
37956;DHT22;23776;51.592;7.180;2023-04-29T15:53:34;17.40;1.00
37956;DHT22;23776;51.592;7.180;2023-04-29T15:56:00;17.20;1.00
37956;DHT22;23776;51.592;7.180;2023-04-29T15:58:26;17.00;96.20